Enter the Airport ICAO Code

Search by Airport or City

Current Weather

SKBG | Palonegro International Airport

Bucaramanga, Colombia

Last Update 1 Hour Ago

Mostly Cloudy Sky

Temperature of 23 ºC

Light to Moderate Winds from NorthWest

Temperature

23 ºC

Dew Point Temperature

23 ºC

Relative Humidity

100 %

Wind Direction

NorthWest (330º, Without Significant Variations)

Wind Velocity

11 km/h (06 kt)

Gusts

None

Visibility

Greater than 10 Kilometers

Sea Level Pressure

29.90 inHg (Inches of Mercury)

Layers of Clouds

30% to 60% of Sky Covered from 457 mts (1500 ft) Above Ground Level.

60% to 90% of Sky Covered from 2134 mts (7000 ft) Above Ground Level.

METAR SKBG 022100Z 33006KT 9999 SCT015 BKN070 23/23 A2990

Weather Forecast

SKBG | Palonegro International Airport

Bucaramanga, Colombia

Forecast valid for the next 20 Hours

From now on it is expected:

Partly Cloudy Sky

Light to Moderate Winds from NorthWest

In 22 hours it is expected the begining of 3 hours with intermittent periods of:

Thunderstorm with Rain

In 3 to 5 hours it is expected the begining of:

Light Winds from Variable Directions

In 10 hours it is expected the begining of 4 hours with intermittent periods of:

Drizzle, Fog Banks

Maximum Temperature

No Data

Minimum Temperature

No Data

TAF SKBG 021630Z 0218/0318 32008KT 9999 SCT010 SCT070 TEMPO 0320/0323 5000 TSRA SCT010CB BECMG 0301/0303 VRB02KT TEMPO 0308/0312 4000 DZ BCFG SCT008 TX27/0218Z TN18/0311Z